Time;durP1;ratioP1;P1;durP2;ratioP2;P2;SDS_P1;SDS_P2;PMS_P1;PMS_P2;Temp;Humidity;BMP_temperature;BMP_pressure;BME280_temperature;BME280_humidity;BME280_pressure;Samples;Min_cycle;Max_cycle;Signal;HPM_P1;HPM_P2
2021/03/03 00:00:57;;;;;;;60.15;29.50;;;;;;;3.78;73.26;101847.59;5115856;27;20016;-73
2021/03/03 00:03:22;;;;;;;61.97;30.25;;;;;;;3.67;73.61;101844.16;5115825;27;20072;-74
2021/03/03 00:05:47;;;;;;;59.22;29.95;;;;;;;3.53;73.73;101831.03;5134440;27;20030;-73
2021/03/03 00:08:13;;;;;;;60.80;29.67;;;;;;;3.67;73.79;101849.44;5134242;27;20061;-73
2021/03/03 00:10:38;;;;;;;59.72;29.60;;;;;;;3.80;73.30;101845.81;5133804;27;20027;-72
2021/03/03 00:13:04;;;;;;;63.60;29.42;;;;;;;3.73;73.47;101854.66;5134280;27;20431;-71
2021/03/03 00:15:29;;;;;;;62.03;31.27;;;;;;;3.77;73.43;101853.78;5133871;27;20140;-70
2021/03/03 00:17:55;;;;;;;66.13;29.77;;;;;;;3.67;73.74;101847.69;5115837;27;20042;-72
2021/03/03 00:20:20;;;;;;;64.68;30.30;;;;;;;3.64;74.22;101849.44;5115518;27;20041;-71
2021/03/03 00:22:46;;;;;;;57.28;28.52;;;;;;;3.65;74.53;101853.81;5115797;27;20023;-71
2021/03/03 00:25:11;;;;;;;60.05;27.85;;;;;;;3.74;74.52;101846.72;5134136;27;20110;-72
2021/03/03 00:27:37;;;;;;;55.38;26.23;;;;;;;3.81;74.09;101841.41;5098200;28;20106;-72
2021/03/03 00:30:03;;;;;;;56.47;26.95;;;;;;;3.77;74.28;101848.50;5115536;27;20023;-73
2021/03/03 00:32:29;;;;;;;54.65;25.98;;;;;;;3.76;74.43;101837.91;5133731;27;20097;-71
2021/03/03 00:34:54;;;;;;;56.95;27.80;;;;;;;3.73;74.34;101838.81;5098693;28;20508;-70
2021/03/03 00:37:20;;;;;;;61.92;28.73;;;;;;;3.65;74.31;101830.06;5133625;27;20538;-69
2021/03/03 00:39:45;;;;;;;57.25;29.08;;;;;;;3.52;74.66;101845.13;5133949;27;20019;-69
2021/03/03 00:42:11;;;;;;;55.80;29.17;;;;;;;3.63;74.53;101843.28;5115554;28;20033;-70
2021/03/03 00:44:36;;;;;;;53.70;28.00;;;;;;;3.48;75.24;101842.53;5133552;28;20035;-70
2021/03/03 00:47:02;;;;;;;57.55;28.20;;;;;;;3.61;74.80;101833.63;5133826;27;20616;-70
2021/03/03 00:49:27;;;;;;;54.53;27.80;;;;;;;3.55;74.91;101828.38;5114983;28;20027;-72
2021/03/03 00:51:53;;;;;;;56.72;27.83;;;;;;;3.65;74.58;101819.53;5098389;28;20095;-74
2021/03/03 00:54:19;;;;;;;55.33;27.55;;;;;;;3.62;74.59;101819.56;5115469;28;20054;-73
2021/03/03 00:56:44;;;;;;;54.90;27.40;;;;;;;3.69;74.46;101818.63;5133637;27;20045;-73
2021/03/03 00:59:10;;;;;;;66.28;28.33;;;;;;;3.50;74.73;101809.09;5119403;27;20047;-72
2021/03/03 01:01:35;;;;;;;61.95;28.60;;;;;;;3.62;74.43;101822.19;5119188;27;20027;-73
2021/03/03 01:04:01;;;;;;;56.55;27.40;;;;;;;3.60;74.13;101821.34;5138079;27;20027;-73
2021/03/03 01:06:26;;;;;;;58.45;28.35;;;;;;;3.51;73.93;101816.13;5137564;27;20027;-74
2021/03/03 01:08:52;;;;;;;58.47;28.17;;;;;;;3.26;74.75;101813.59;5137708;27;20055;-73
2021/03/03 01:11:17;;;;;;;64.28;30.63;;;;;;;3.35;74.90;101824.09;5119527;27;20038;-73
2021/03/03 01:13:43;;;;;;;63.95;30.00;;;;;;;3.30;75.26;101814.47;5118801;27;20023;-73
2021/03/03 01:16:08;;;;;;;61.13;29.55;;;;;;;3.36;74.95;101823.22;5102192;27;20109;-72
2021/03/03 01:18:34;;;;;;;65.05;31.42;;;;;;;3.22;75.49;101813.63;5118970;27;20030;-72
2021/03/03 01:20:59;;;;;;;66.20;30.90;;;;;;;3.23;75.44;101812.75;5137533;27;20426;-74
2021/03/03 01:23:24;;;;;;;62.22;28.85;;;;;;;3.30;75.41;101809.22;5137206;27;20053;-72
2021/03/03 01:25:51;;;;;;;57.05;29.02;;;;;;;3.30;75.47;101807.44;5119029;27;20505;-72
2021/03/03 01:28:17;;;;;;;59.65;29.73;;;;;;;3.24;75.78;101803.94;5137407;27;20031;-70
2021/03/03 01:30:42;;;;;;;54.08;29.27;;;;;;;3.12;76.13;101797.00;5118663;27;20100;-70
2021/03/03 01:33:08;;;;;;;59.95;29.38;;;;;;;3.13;76.16;101801.38;5118919;27;20046;-72
2021/03/03 01:35:33;;;;;;;60.15;29.00;;;;;;;3.26;75.68;101805.69;5137021;27;20038;-71
2021/03/03 01:37:59;;;;;;;62.08;31.35;;;;;;;3.47;74.46;101796.78;5118926;27;20171;-71
2021/03/03 01:40:24;;;;;;;66.65;31.48;;;;;;;3.43;74.18;101802.97;5118687;27;20064;-70
2021/03/03 01:42:53;;;;;;;58.97;30.45;;;;;;;3.47;74.46;101801.16;5137106;27;20027;-71
2021/03/03 01:45:19;;;;;;;67.32;31.45;;;;;;;3.39;74.41;101801.25;5137008;27;20107;-71
2021/03/03 01:47:44;;;;;;;63.13;30.30;;;;;;;3.42;74.45;101799.44;5136711;27;20076;-71
2021/03/03 01:50:11;;;;;;;61.42;30.20;;;;;;;3.37;73.93;101805.63;5136868;27;20023;-71
2021/03/03 01:52:39;;;;;;;67.60;31.98;;;;;;;3.32;74.49;101805.66;5136607;27;20102;-72
2021/03/03 01:55:05;;;;;;;70.03;31.38;;;;;;;3.33;74.62;101796.88;5138819;27;20418;-71
2021/03/03 01:57:31;;;;;;;67.75;34.05;;;;;;;3.30;74.44;101801.28;5138784;27;20393;-74
2021/03/03 01:59:57;;;;;;;78.57;36.25;;;;;;;3.40;74.32;101795.06;5139625;27;20054;-73
2021/03/03 02:02:24;;;;;;;73.38;33.45;;;;;;;3.35;74.89;101794.22;5119789;27;20020;-71
2021/03/03 02:04:54;;;;;;;77.97;34.72;;;;;;;3.26;75.04;101797.78;5136626;27;20031;-72
2021/03/03 02:07:59;;;;;;;79.78;37.67;;;;;;;3.20;75.45;101797.84;5136569;27;20027;-72
2021/03/03 02:10:47;;;;;;;89.05;37.67;;;;;;;3.37;74.99;101787.16;5106749;27;20074;-76
2021/03/03 02:13:20;;;;;;;79.43;36.13;;;;;;;3.35;74.80;101787.19;5088511;27;20404;-71
2021/03/03 02:15:47;;;;;;;78.15;35.25;;;;;;;3.24;75.24;101781.09;5136195;27;20054;-71
2021/03/03 02:18:14;;;;;;;77.05;35.33;;;;;;;3.36;74.80;101785.41;5136342;27;20113;-72
2021/03/03 02:21:05;;;;;;;74.57;35.45;;;;;;;3.27;74.75;101788.09;5135983;27;20030;-72
2021/03/03 02:23:53;;;;;;;73.18;32.25;;;;;;;3.25;74.71;101793.38;5136028;27;20172;-72
2021/03/03 02:26:21;;;;;;;71.90;34.00;;;;;;;3.06;74.75;101786.47;5136316;27;20027;-73
2021/03/03 02:28:48;;;;;;;69.18;33.45;;;;;;;3.08;75.25;101782.06;5136004;27;20023;-71
2021/03/03 02:31:16;;;;;;;71.65;34.38;;;;;;;2.93;75.58;101780.38;5136052;27;20114;-71
2021/03/03 02:33:43;;;;;;;66.28;32.40;;;;;;;2.97;75.63;101781.22;5135778;27;20030;-71
2021/03/03 02:36:11;;;;;;;66.40;32.22;;;;;;;2.80;75.87;101773.41;5136058;27;20038;-71
2021/03/03 02:38:40;;;;;;;61.45;32.05;;;;;;;2.85;75.48;101769.88;5135723;27;20141;-72
2021/03/03 02:41:10;;;;;;;67.78;32.90;;;;;;;2.94;75.32;101776.00;5135901;27;20027;-70
2021/03/03 02:43:37;;;;;;;67.65;32.15;;;;;;;2.81;75.59;101776.03;5135590;27;20034;-71
2021/03/03 02:46:05;;;;;;;68.47;32.42;;;;;;;2.90;75.58;101779.53;5135879;27;20034;-70
2021/03/03 02:48:31;;;;;;;73.00;34.45;;;;;;;2.74;75.96;101781.34;5117088;27;20602;-71
2021/03/03 02:50:57;;;;;;;70.57;32.22;;;;;;;2.67;76.67;101777.84;5117299;27;20122;-71
2021/03/03 02:53:22;;;;;;;69.60;33.65;;;;;;;2.66;76.57;101772.59;5100592;27;20110;-72
2021/03/03 02:55:48;;;;;;;67.43;32.10;;;;;;;2.90;76.12;101784.81;5135850;27;20031;-71
2021/03/03 02:58:14;;;;;;;75.45;34.53;;;;;;;2.87;75.12;101785.66;5135453;27;20046;-72
2021/03/03 03:00:41;;;;;;;69.35;35.47;;;;;;;2.81;75.56;101778.69;5116835;27;20023;-71
2021/03/03 03:03:20;;;;;;;76.78;34.95;;;;;;;2.91;75.38;101779.53;5135435;27;20027;-71
2021/03/03 03:05:51;;;;;;;72.15;35.35;;;;;;;2.90;75.60;101774.25;5135210;27;20031;-71
2021/03/03 03:08:21;;;;;;;74.03;34.38;;;;;;;2.87;75.18;101769.84;5117088;27;20481;-71
2021/03/03 03:10:47;;;;;;;71.07;34.95;;;;;;;2.84;75.20;101776.03;5116489;27;20072;-73
2021/03/03 03:13:16;;;;;;;75.70;35.45;;;;;;;2.79;75.31;101783.06;5135313;27;20087;-72
2021/03/03 03:15:44;;;;;;;80.88;35.67;;;;;;;2.79;75.57;101777.78;5135006;27;20023;-75
2021/03/03 03:18:18;;;;;;;78.40;37.08;;;;;;;2.57;75.89;101771.72;5116866;27;20489;-74
2021/03/03 03:20:45;;;;;;;75.15;36.72;;;;;;;2.51;76.35;101781.41;5134030;27;20109;-75
2021/03/03 03:23:11;;;;;;;79.75;37.38;;;;;;;2.55;76.44;101783.16;5116816;27;20034;-74
2021/03/03 03:25:40;;;;;;;77.55;37.40;;;;;;;2.48;76.64;101787.56;5135043;27;20027;-74
2021/03/03 03:28:06;;;;;;;70.80;34.75;;;;;;;2.49;76.55;101783.16;5135166;27;20438;-73
2021/03/03 03:30:33;;;;;;;74.55;36.47;;;;;;;2.47;76.79;101780.53;5134595;27;20027;-74
2021/03/03 03:32:59;;;;;;;74.75;34.78;;;;;;;2.48;76.45;101782.28;5134923;27;20027;-73
2021/03/03 03:35:27;;;;;;;71.75;34.97;;;;;;;2.41;76.75;101775.28;5134899;27;20480;-74
2021/03/03 03:37:52;;;;;;;76.72;35.88;;;;;;;2.33;76.89;101797.25;5134589;27;20027;-74
2021/03/03 03:40:18;;;;;;;70.07;34.25;;;;;;;2.24;77.30;101788.50;5116335;27;20019;-71
2021/03/03 03:42:45;;;;;;;70.20;34.05;;;;;;;2.24;77.22;101793.75;5116032;27;20030;-71
2021/03/03 03:45:12;;;;;;;64.88;32.70;;;;;;;2.06;78.12;101795.53;5134876;27;20565;-71
2021/03/03 03:47:38;;;;;;;75.10;35.75;;;;;;;1.97;78.59;101801.69;5133582;27;20031;-71
2021/03/03 03:50:05;;;;;;;70.95;34.55;;;;;;;1.89;79.04;101804.31;5116294;27;20496;-72
2021/03/03 03:52:30;;;;;;;75.80;34.28;;;;;;;1.96;78.72;101802.56;5134504;27;20035;-71
2021/03/03 03:54:56;;;;;;;65.95;34.25;;;;;;;1.90;79.07;101792.03;5134101;27;20492;-70
2021/03/03 03:57:22;;;;;;;74.55;35.67;;;;;;;2.06;78.69;101791.16;5116124;27;20031;-71
2021/03/03 03:59:48;;;;;;;71.15;33.85;;;;;;;2.08;78.41;101796.41;5115625;27;20055;-71
2021/03/03 04:02:15;;;;;;;70.03;33.65;;;;;;;2.12;77.91;101793.75;5134449;27;20484;-71
2021/03/03 04:04:40;;;;;;;65.80;32.72;;;;;;;2.01;78.14;101795.53;5134081;27;20035;-71
2021/03/03 04:07:06;;;;;;;75.00;33.22;;;;;;;2.02;77.89;101797.28;5134548;27;20034;-71
2021/03/03 04:09:32;;;;;;;70.82;33.33;;;;;;;2.12;77.58;101800.78;5134227;27;20072;-72
2021/03/03 04:11:57;;;;;;;71.78;33.30;;;;;;;2.10;77.47;101798.16;5134042;27;20066;-74
2021/03/03 04:14:24;;;;;;;66.32;30.95;;;;;;;2.12;77.10;101799.03;5116057;27;20043;-71
2021/03/03 04:16:50;;;;;;;70.18;33.70;;;;;;;2.10;77.45;101794.66;5115551;27;20446;-72
2021/03/03 04:19:16;;;;;;;67.07;31.52;;;;;;;2.09;77.45;101801.66;5115951;27;20027;-71
2021/03/03 04:21:41;;;;;;;69.15;31.35;;;;;;;2.07;77.46;101800.78;5133817;27;20023;-70
2021/03/03 04:24:07;;;;;;;61.35;30.83;;;;;;;1.96;77.62;101787.66;5134033;27;20381;-72
2021/03/03 04:26:33;;;;;;;61.25;29.05;;;;;;;2.01;77.78;101796.41;5134030;27;20042;-72
2021/03/03 04:28:59;;;;;;;64.57;31.70;;;;;;;1.99;77.80;101799.91;5133717;27;20469;-71
2021/03/03 04:31:24;;;;;;;69.35;31.90;;;;;;;1.76;77.89;101772.75;5133799;27;20110;-71
2021/03/03 04:33:49;;;;;;;62.45;29.25;;;;;;;1.64;78.33;101774.50;5133661;27;20492;-72
2021/03/03 04:36:15;;;;;;;64.22;30.35;;;;;;;1.68;78.96;101802.53;5134110;27;20393;-70
2021/03/03 04:38:41;;;;;;;59.67;28.67;;;;;;;1.56;79.57;101807.81;5133561;27;20461;-72
2021/03/03 04:41:06;;;;;;;61.83;30.25;;;;;;;1.48;79.71;101812.16;5133744;27;20029;-72
2021/03/03 04:43:32;;;;;;;65.93;30.92;;;;;;;1.40;80.01;101800.75;5115500;28;20029;-70
2021/03/03 04:45:57;;;;;;;58.05;29.60;;;;;;;1.45;80.33;101804.28;5115259;28;20037;-71
2021/03/03 04:48:23;;;;;;;62.88;29.77;;;;;;;1.71;79.17;101807.81;5133663;27;20023;-73
2021/03/03 04:50:48;;;;;;;62.72;29.92;;;;;;;1.72;79.14;101804.28;5133221;28;20031;-71
2021/03/03 04:53:14;;;;;;;63.15;30.25;;;;;;;1.70;78.54;101803.41;5133671;28;20102;-72
2021/03/03 04:55:39;;;;;;;70.25;31.65;;;;;;;1.75;78.37;101808.69;5133608;28;20027;-72
2021/03/03 04:58:05;;;;;;;71.82;30.92;;;;;;;1.79;78.16;101804.31;5115425;28;20056;-71
2021/03/03 05:00:30;;;;;;;62.60;31.25;;;;;;;1.76;78.25;101799.06;5133908;28;20023;-71
2021/03/03 05:02:56;;;;;;;68.88;31.55;;;;;;;1.71;78.00;101797.28;5115112;28;20820;-71
2021/03/03 05:05:21;;;;;;;64.90;30.92;;;;;;;1.55;78.30;101800.78;5115217;28;20023;-71
2021/03/03 05:07:47;;;;;;;65.43;29.90;;;;;;;1.55;78.42;101811.31;5133217;28;20066;-72
2021/03/03 05:10:13;;;;;;;71.63;33.03;;;;;;;1.42;79.20;101806.88;5133555;27;20073;-72
2021/03/03 05:12:38;;;;;;;65.40;31.23;;;;;;;1.36;79.55;101810.38;5103130;28;20027;-76
2021/03/03 05:15:04;;;;;;;65.97;30.73;;;;;;;1.42;79.17;101799.00;5136850;28;20110;-72
2021/03/03 05:17:30;;;;;;;71.00;32.05;;;;;;;1.44;79.13;101802.50;5133508;28;20035;-72
2021/03/03 05:19:55;;;;;;;71.75;30.77;;;;;;;1.42;79.15;101805.13;5114829;28;20030;-73
2021/03/03 05:22:21;;;;;;;66.20;31.27;;;;;;;1.54;78.75;101804.25;5133485;28;20038;-72
2021/03/03 05:24:46;;;;;;;73.20;32.70;;;;;;;1.49;78.88;101808.66;5114820;28;20042;-73
2021/03/03 05:27:12;;;;;;;73.55;32.15;;;;;;;1.43;79.11;101804.25;5133375;28;20019;-71
2021/03/03 05:29:37;;;;;;;74.53;31.92;;;;;;;1.53;78.82;101797.25;5133379;28;20027;-71
2021/03/03 05:32:03;;;;;;;76.57;33.55;;;;;;;1.61;78.28;101811.28;5133018;28;20107;-74
2021/03/03 05:34:29;;;;;;;71.07;32.55;;;;;;;1.48;78.80;101804.28;5133294;27;20430;-71
2021/03/03 05:36:54;;;;;;;73.75;33.60;;;;;;;1.62;78.56;101807.78;5132966;28;20484;-71
2021/03/03 05:39:19;;;;;;;67.32;33.33;;;;;;;1.65;77.98;101804.31;5115073;28;20384;-71
2021/03/03 05:41:45;;;;;;;75.38;34.53;;;;;;;1.68;77.82;101809.56;5132857;28;20027;-71
2021/03/03 05:44:11;;;;;;;72.85;33.83;;;;;;;1.66;77.39;101804.31;5135654;27;20100;-71
2021/03/03 05:46:38;;;;;;;83.63;37.38;;;;;;;1.67;77.59;101806.06;5137031;27;20034;-70
2021/03/03 05:49:05;;;;;;;82.80;37.45;;;;;;;1.53;77.92;101810.41;5136636;27;20027;-72
2021/03/03 05:51:32;;;;;;;80.13;37.17;;;;;;;1.47;78.06;101813.03;5136797;27;20027;-71
2021/03/03 05:53:59;;;;;;;92.10;39.30;;;;;;;1.59;78.46;101805.16;5136429;27;20050;-71
2021/03/03 05:56:25;;;;;;;84.70;40.13;;;;;;;1.65;77.90;101812.19;5118595;27;20072;-70
2021/03/03 05:58:50;;;;;;;93.13;40.30;;;;;;;1.68;78.20;101820.09;5136474;27;20590;-69
2021/03/03 06:01:17;;;;;;;97.60;42.05;;;;;;;1.71;77.90;101813.06;5136668;27;20071;-68
2021/03/03 06:03:43;;;;;;;94.00;39.05;;;;;;;1.87;77.41;101819.22;5117911;27;20027;-69
2021/03/03 06:06:09;;;;;;;86.25;38.58;;;;;;;2.01;77.12;101816.56;5118425;27;20031;-71
2021/03/03 06:08:35;;;;;;;98.28;42.00;;;;;;;2.06;76.60;101811.34;5136652;27;20031;-71
2021/03/03 06:11:02;;;;;;;100.85;43.63;;;;;;;2.15;76.28;101811.31;5117994;27;20027;-72
2021/03/03 06:13:28;;;;;;;79.97;37.83;;;;;;;2.31;75.92;101810.41;5118590;27;20027;-70
2021/03/03 06:15:54;;;;;;;95.40;43.72;;;;;;;2.33;75.40;101807.81;5136280;27;20537;-70
2021/03/03 06:18:21;;;;;;;78.10;37.30;;;;;;;2.26;75.47;101807.78;5136653;27;20031;-72
2021/03/03 06:20:49;;;;;;;77.43;36.05;;;;;;;2.24;75.91;101813.94;5136087;27;20046;-69
2021/03/03 06:23:22;;;;;;;69.40;32.08;;;;;;;2.47;75.67;101812.16;5117844;27;20015;-70
2021/03/03 06:26:07;;;;;;;73.95;33.20;;;;;;;2.45;75.28;101815.66;5135956;27;20035;-70
2021/03/03 06:28:42;;;;;;;63.88;30.02;;;;;;;2.35;75.69;101817.44;5136334;27;20023;-69
2021/03/03 06:31:23;;;;;;;66.07;31.33;;;;;;;2.41;75.63;101817.41;5135984;27;20095;-71
2021/03/03 06:33:49;;;;;;;71.22;31.63;;;;;;;2.45;75.94;101807.75;5135942;27;20092;-70
2021/03/03 06:36:27;;;;;;;69.70;30.58;;;;;;;2.58;75.15;101809.47;5117995;27;20095;-72
2021/03/03 06:38:55;;;;;;;69.25;30.23;;;;;;;2.52;75.78;101806.88;5135951;27;20055;-71
2021/03/03 06:41:21;;;;;;;63.53;30.55;;;;;;;2.57;75.58;101803.34;5136135;27;20034;-70
2021/03/03 06:43:58;;;;;;;69.07;33.25;;;;;;;2.72;74.92;101797.16;5100434;27;20466;-71
2021/03/03 06:46:24;;;;;;;63.97;31.05;;;;;;;2.80;75.17;101805.03;5135895;27;20439;-68
2021/03/03 06:48:50;;;;;;;64.72;31.85;;;;;;;2.79;75.11;101793.59;5135670;27;20068;-69
2021/03/03 06:51:19;;;;;;;76.50;32.92;;;;;;;3.00;74.34;101802.31;5135827;27;20027;-69
2021/03/03 06:53:45;;;;;;;65.40;31.92;;;;;;;2.97;74.29;101797.03;5135593;27;20046;-69
2021/03/03 06:56:11;;;;;;;71.47;32.25;;;;;;;3.03;74.35;101802.31;5135813;27;20400;-66
2021/03/03 06:58:37;;;;;;;72.63;34.13;;;;;;;3.01;74.61;101793.53;5135555;27;20122;-69
2021/03/03 07:01:02;;;;;;;65.28;31.40;;;;;;;3.04;74.56;101789.13;5117106;27;20027;-69
2021/03/03 07:03:33;;;;;;;67.13;32.78;;;;;;;3.11;74.65;101797.88;5135670;27;20102;-70
2021/03/03 07:05:59;;;;;;;64.03;31.10;;;;;;;3.15;74.72;101796.97;5135566;27;20027;-69
2021/03/03 07:08:25;;;;;;;65.38;31.75;;;;;;;3.22;74.60;101796.06;5135426;27;20076;-69
2021/03/03 07:10:50;;;;;;;60.83;29.85;;;;;;;3.34;74.40;101780.16;5116875;27;20054;-68
2021/03/03 07:13:16;;;;;;;72.82;30.63;;;;;;;3.39;74.36;101782.78;5135560;27;20030;-70
2021/03/03 07:15:42;;;;;;;61.10;31.40;;;;;;;3.49;74.20;101789.75;5135909;27;20080;-72
2021/03/03 07:18:36;;;;;;;63.83;30.30;;;;;;;3.57;74.34;101787.03;5135877;27;20038;-71
2021/03/03 07:21:05;;;;;;;63.75;30.88;;;;;;;3.69;74.02;101784.31;5116507;27;20106;-73
2021/03/03 07:24:00;;;;;;;60.90;30.02;;;;;;;3.89;73.41;101785.03;5135487;27;20397;-70
2021/03/03 07:26:26;;;;;;;62.85;30.30;;;;;;;4.11;72.74;101787.50;5095240;27;20046;-71
2021/03/03 07:28:51;;;;;;;67.43;30.88;;;;;;;4.07;72.47;101780.50;5116561;27;20485;-71
2021/03/03 07:31:17;;;;;;;60.55;30.08;;;;;;;4.06;73.09;101781.38;5116769;27;20110;-70
2021/03/03 07:33:42;;;;;;;63.78;29.52;;;;;;;4.14;73.10;101787.44;5135119;27;20027;-70
2021/03/03 07:36:08;;;;;;;63.53;30.10;;;;;;;4.15;72.99;101789.19;5116508;27;20027;-71
2021/03/03 07:38:37;;;;;;;64.20;30.17;;;;;;;4.18;73.05;101790.06;5134897;27;20038;-70
2021/03/03 07:41:12;;;;;;;66.35;30.55;;;;;;;4.21;72.96;101792.66;5134666;27;20071;-72
2021/03/03 07:43:43;;;;;;;55.30;29.70;;;;;;;4.22;72.83;101788.25;5134327;27;20115;-71
2021/03/03 07:46:09;;;;;;;57.90;28.90;;;;;;;4.23;72.75;101776.78;5134762;27;20015;-71
2021/03/03 07:48:36;;;;;;;58.80;27.75;;;;;;;4.29;72.73;101787.31;5116635;27;20096;-71
2021/03/03 07:51:05;;;;;;;60.20;28.35;;;;;;;4.41;72.31;101781.91;5115840;27;20027;-71
2021/03/03 07:53:37;;;;;;;52.25;28.08;;;;;;;4.56;72.15;101789.69;5116886;27;20481;-71
2021/03/03 07:56:06;;;;;;;56.47;27.70;;;;;;;4.69;71.53;101789.53;5134414;27;20396;-70
2021/03/03 07:58:33;;;;;;;51.00;25.90;;;;;;;4.82;71.33;101785.84;5134441;27;20079;-71
2021/03/03 08:00:58;;;;;;;51.28;25.88;;;;;;;4.96;70.39;101790.97;5134376;27;20031;-68
2021/03/03 08:03:44;;;;;;;54.85;25.48;;;;;;;5.03;69.53;101785.59;5134518;27;20092;-72
2021/03/03 08:06:23;;;;;;;50.10;25.83;;;;;;;5.11;69.71;101791.63;5082357;27;20653;-72
2021/03/03 08:09:13;;;;;;;54.47;25.80;;;;;;;5.27;69.09;101786.13;5115781;27;20107;-71
2021/03/03 08:11:46;;;;;;;55.22;25.63;;;;;;;5.41;68.46;101789.47;5121412;27;20383;-72
2021/03/03 08:14:41;;;;;;;57.60;27.60;;;;;;;5.47;68.11;101784.09;5133556;27;20034;-71
2021/03/03 08:17:09;;;;;;;53.47;25.65;;;;;;;5.64;67.74;101782.06;5111768;27;20066;-71
2021/03/03 08:19:50;;;;;;;64.05;29.17;;;;;;;5.72;67.74;101789.88;5134094;27;20071;-71
2021/03/03 08:22:16;;;;;;;54.22;26.75;;;;;;;5.75;67.83;101774.81;5133704;27;20023;-72
2021/03/03 08:24:42;;;;;;;48.35;25.15;;;;;;;5.66;68.25;101777.59;5115862;27;20083;-71
2021/03/03 08:27:35;;;;;;;50.33;24.73;;;;;;;5.69;67.91;101777.59;5133749;27;20027;-71
2021/03/03 08:30:15;;;;;;;45.80;23.58;;;;;;;5.81;66.69;101772.97;5133608;27;20501;-71
2021/03/03 08:32:41;;;;;;;51.90;25.83;;;;;;;5.91;66.42;101780.78;5115424;27;20027;-71
2021/03/03 08:35:08;;;;;;;50.70;25.40;;;;;;;6.12;65.25;101773.38;5133513;27;20023;-71
2021/03/03 08:37:35;;;;;;;42.35;22.48;;;;;;;6.26;64.76;101777.50;5133991;27;20088;-72
2021/03/03 08:40:03;;;;;;;44.47;22.45;;;;;;;6.21;65.00;101774.06;5133488;27;20075;-71
2021/03/03 08:42:31;;;;;;;38.55;19.77;;;;;;;6.46;63.50;101768.31;5115970;27;20043;-72
2021/03/03 08:45:03;;;;;;;42.58;20.73;;;;;;;6.57;63.55;101771.66;5115448;27;20035;-72
2021/03/03 08:47:48;;;;;;;48.78;22.30;;;;;;;6.52;63.80;101773.50;5133870;27;20027;-70
2021/03/03 08:50:31;;;;;;;42.85;21.23;;;;;;;6.51;63.78;101769.09;5133329;28;20023;-72
2021/03/03 08:53:24;;;;;;;39.92;21.52;;;;;;;6.80;63.01;101769.41;5115189;28;20099;-73
2021/03/03 08:55:50;;;;;;;48.22;22.23;;;;;;;6.97;62.77;101778.78;5133598;28;20019;-71
2021/03/03 08:58:35;;;;;;;43.58;22.23;;;;;;;7.10;61.76;101767.00;5133102;28;20052;-71
2021/03/03 09:01:01;;;;;;;51.38;23.80;;;;;;;7.32;61.31;101768.25;5133360;28;20088;-70
2021/03/03 09:03:27;;;;;;;45.05;21.85;;;;;;;7.48;60.38;101763.47;5115300;28;20027;-71
2021/03/03 09:05:56;;;;;;;51.30;26.30;;;;;;;7.36;60.67;101754.03;5135881;28;20054;-72
2021/03/03 09:08:25;;;;;;;40.92;21.27;;;;;;;7.57;59.70;101765.06;5145069;28;20027;-70
2021/03/03 09:10:52;;;;;;;43.65;21.30;;;;;;;7.59;59.37;101763.22;5141603;28;20080;-71
2021/03/03 09:13:28;;;;;;;43.50;21.13;;;;;;;7.80;58.53;101756.50;5134005;27;20072;-71
2021/03/03 09:16:14;;;;;;;42.28;21.67;;;;;;;7.97;57.87;101757.84;5133730;28;20031;-71
2021/03/03 09:18:39;;;;;;;40.25;20.45;;;;;;;7.98;57.64;101762.25;5117913;27;20362;-71
2021/03/03 09:21:10;;;;;;;37.35;20.85;;;;;;;8.03;56.90;101755.03;5137231;27;20021;-72
2021/03/03 09:23:37;;;;;;;42.75;21.67;;;;;;;8.22;56.59;101749.25;5137578;27;20469;-71
2021/03/03 09:26:16;;;;;;;44.05;22.67;;;;;;;8.27;56.63;101745.53;5137062;27;20095;-71
2021/03/03 09:28:42;;;;;;;38.60;20.67;;;;;;;8.26;56.69;101737.59;5137534;27;20026;-71
2021/03/03 09:31:08;;;;;;;40.03;20.13;;;;;;;8.49;55.57;101740.56;5118665;27;20496;-72
2021/03/03 09:33:34;;;;;;;40.13;19.85;;;;;;;8.48;55.70;101737.91;5137044;27;20031;-70
2021/03/03 09:36:00;;;;;;;37.55;20.38;;;;;;;8.47;55.75;101741.50;5136743;27;20034;-71
2021/03/03 09:38:30;;;;;;;40.58;20.80;;;;;;;8.65;55.60;101745.44;5137142;27;20027;-71
2021/03/03 09:40:56;;;;;;;44.25;21.33;;;;;;;8.60;55.70;101738.47;5118485;27;20027;-70
2021/03/03 09:43:21;;;;;;;40.40;20.75;;;;;;;8.70;55.60;101743.53;5118585;27;20030;-71
2021/03/03 09:45:53;;;;;;;40.42;21.67;;;;;;;8.82;55.44;101737.84;5118785;27;20106;-71
2021/03/03 09:48:28;;;;;;;39.47;21.42;;;;;;;8.84;55.09;101728.00;5119404;27;20099;-71
2021/03/03 09:50:55;;;;;;;37.80;21.45;;;;;;;8.97;54.56;101721.38;5118328;27;20035;-70
2021/03/03 09:53:21;;;;;;;37.40;19.25;;;;;;;8.94;54.90;101739.25;5117882;27;20054;-72
2021/03/03 09:55:46;;;;;;;40.78;20.38;;;;;;;8.86;55.39;101728.84;5118828;27;20035;-70
2021/03/03 09:58:12;;;;;;;37.85;19.17;;;;;;;8.91;55.20;101729.59;5117990;27;20047;-71
2021/03/03 10:00:42;;;;;;;41.83;19.20;;;;;;;9.11;54.11;101724.53;5118455;27;20031;-71
2021/03/03 10:03:13;;;;;;;34.17;17.40;;;;;;;9.19;53.06;101710.97;5136452;27;20027;-71
2021/03/03 10:05:40;;;;;;;35.08;17.75;;;;;;;9.30;53.08;101715.97;5118622;27;20035;-71
2021/03/03 10:08:09;;;;;;;35.95;17.73;;;;;;;9.40;53.20;101714.75;5136331;27;20461;-70
2021/03/03 10:10:40;;;;;;;32.30;17.05;;;;;;;9.46;52.62;101704.78;5136573;27;20102;-71
2021/03/03 10:13:06;;;;;;;33.13;17.27;;;;;;;9.58;52.11;101698.16;5136325;27;20042;-71
2021/03/03 10:15:36;;;;;;;34.72;17.35;;;;;;;9.68;51.75;101699.59;5118187;27;20476;-72
2021/03/03 10:18:08;;;;;;;34.25;17.58;;;;;;;9.91;50.83;101695.28;5136293;27;20027;-75
2021/03/03 10:20:33;;;;;;;32.92;16.98;;;;;;;9.98;50.95;101696.81;5136352;27;20019;-71
2021/03/03 10:23:06;;;;;;;30.35;15.73;;;;;;;10.00;50.75;101697.63;5117905;27;20019;-71
2021/03/03 10:25:37;;;;;;;31.00;15.65;;;;;;;9.94;50.90;101695.16;5136184;27;20031;-71
2021/03/03 10:28:06;;;;;;;28.73;15.93;;;;;;;10.07;49.90;101693.84;5136060;27;20500;-77
2021/03/03 10:30:32;;;;;;;30.83;14.75;;;;;;;10.29;48.20;101689.50;5135720;27;20549;-71
2021/03/03 10:32:58;;;;;;;31.17;12.88;;;;;;;10.31;48.18;101686.78;5136080;27;20585;-71
2021/03/03 10:35:26;;;;;;;23.35;12.07;;;;;;;10.46;47.65;101688.03;5135790;27;20106;-71
2021/03/03 10:37:52;;;;;;;27.05;13.60;;;;;;;10.47;47.71;101679.09;5136053;27;20019;-71
2021/03/03 10:40:19;;;;;;;23.98;12.98;;;;;;;10.39;48.10;101684.69;5135669;27;20015;-71
2021/03/03 10:42:45;;;;;;;25.90;13.00;;;;;;;10.63;47.39;101669.59;5135879;27;20102;-71
2021/03/03 10:45:22;;;;;;;27.30;12.55;;;;;;;10.71;45.96;101669.28;5135574;27;20079;-71
2021/03/03 10:47:49;;;;;;;26.35;12.10;;;;;;;10.75;45.60;101671.78;5135983;27;20015;-71
2021/03/03 10:50:19;;;;;;;23.05;11.68;;;;;;;10.74;45.73;101655.84;5135512;27;20359;-72
2021/03/03 10:53:03;;;;;;;24.67;12.13;;;;;;;10.81;45.37;101650.19;5118179;27;20106;-71
2021/03/03 10:55:37;;;;;;;26.58;12.30;;;;;;;10.78;45.55;101647.63;5135182;27;20052;-71
2021/03/03 10:58:11;;;;;;;25.25;11.43;;;;;;;10.86;45.83;101640.19;5135687;27;20443;-71
2021/03/03 11:00:56;;;;;;;21.75;11.30;;;;;;;10.89;45.88;101637.41;5135536;27;20059;-71
2021/03/03 11:03:22;;;;;;;21.88;11.55;;;;;;;10.85;45.13;101627.78;5135200;27;20034;-71
2021/03/03 11:05:56;;;;;;;25.63;11.63;;;;;;;10.87;44.39;101631.25;5117228;27;20027;-70
2021/03/03 11:08:23;;;;;;;23.63;11.70;;;;;;;10.92;45.27;101632.91;5135129;27;20015;-70
2021/03/03 11:10:49;;;;;;;25.77;12.18;;;;;;;10.96;44.86;101621.16;5135061;27;20027;-70
2021/03/03 11:13:16;;;;;;;23.92;12.15;;;;;;;11.02;44.96;101620.91;5134817;27;20031;-71
2021/03/03 11:15:43;;;;;;;25.45;11.80;;;;;;;10.98;44.89;101616.63;5100003;27;20015;-70
2021/03/03 11:18:09;;;;;;;22.50;11.65;;;;;;;11.14;44.46;101613.25;5116494;27;20453;-73
2021/03/03 11:20:37;;;;;;;24.75;11.27;;;;;;;11.17;43.75;101598.91;5135348;27;20382;-70
2021/03/03 11:23:03;;;;;;;24.25;11.70;;;;;;;11.27;43.94;101605.59;5135283;27;20042;-71